createdAt,value
2018-12-08T00:01:42.756Z,22.70
2018-12-08T00:04:09.816Z,22.70
2018-12-08T00:06:36.914Z,22.70
2018-12-08T00:09:04.838Z,22.70
2018-12-08T00:11:31.986Z,22.70
2018-12-08T00:13:59.016Z,22.70
2018-12-08T00:16:26.027Z,22.60
2018-12-08T00:18:53.110Z,22.70
2018-12-08T00:21:20.175Z,22.70
2018-12-08T00:23:47.223Z,22.70
2018-12-08T00:26:14.303Z,22.70
2018-12-08T00:28:41.407Z,22.70
2018-12-08T00:31:14.378Z,22.70
2018-12-08T00:33:41.376Z,22.70
2018-12-08T00:36:08.452Z,22.70
2018-12-08T00:38:35.460Z,22.70
2018-12-08T00:41:02.516Z,22.70
2018-12-08T00:43:29.646Z,22.60
2018-12-08T00:45:56.656Z,22.70
2018-12-08T00:48:23.719Z,22.70
2018-12-08T00:50:51.110Z,22.60
2018-12-08T00:53:18.236Z,22.60
2018-12-08T00:55:45.261Z,22.60
2018-12-08T00:58:12.382Z,22.70
2018-12-08T01:00:39.449Z,22.60
2018-12-08T01:03:06.559Z,22.70
2018-12-08T01:05:33.610Z,22.60
2018-12-08T01:08:01.100Z,22.60
2018-12-08T01:10:28.183Z,22.60
2018-12-08T01:12:55.185Z,22.60
2018-12-08T01:15:22.307Z,22.60
2018-12-08T01:17:49.382Z,22.60
2018-12-08T01:20:16.594Z,22.60
2018-12-08T01:22:43.644Z,22.60
2018-12-08T01:25:10.705Z,22.60
2018-12-08T01:27:37.803Z,22.60
2018-12-08T01:30:05.432Z,22.60
2018-12-08T01:32:32.504Z,22.60
2018-12-08T01:34:59.610Z,22.60
2018-12-08T01:37:26.744Z,22.60
2018-12-08T01:39:53.828Z,22.60
2018-12-08T01:42:20.908Z,22.60
2018-12-08T01:44:47.958Z,22.60
2018-12-08T01:47:15.028Z,22.60
2018-12-08T01:49:42.106Z,22.60
2018-12-08T01:52:09.223Z,22.60
2018-12-08T01:54:36.232Z,22.60
2018-12-08T01:57:03.338Z,22.60
2018-12-08T01:59:30.354Z,22.60
2018-12-08T02:01:57.407Z,22.60
2018-12-08T02:04:24.454Z,22.60
2018-12-08T02:06:51.503Z,22.60
2018-12-08T02:09:18.554Z,22.70
2018-12-08T02:11:45.551Z,22.60
2018-12-08T02:14:12.663Z,22.70
2018-12-08T02:16:39.711Z,22.60
2018-12-08T02:19:06.850Z,22.70
2018-12-08T02:21:33.943Z,22.70
2018-12-08T02:24:00.953Z,22.60
2018-12-08T02:26:27.951Z,22.60
2018-12-08T02:28:55.003Z,22.60
2018-12-08T02:31:22.099Z,22.70
2018-12-08T02:33:49.139Z,22.70
2018-12-08T02:36:16.233Z,22.60
2018-12-08T02:38:43.251Z,22.60
2018-12-08T02:41:10.271Z,22.60
2018-12-08T02:43:37.425Z,22.60
2018-12-08T02:46:04.555Z,22.60
2018-12-08T02:48:31.639Z,22.60
2018-12-08T02:50:58.752Z,22.60
2018-12-08T02:53:25.771Z,22.60
2018-12-08T02:55:52.790Z,22.60
2018-12-08T02:58:19.933Z,22.60
2018-12-08T03:00:47.041Z,22.60
2018-12-08T03:03:14.233Z,22.60
2018-12-08T03:05:41.300Z,22.60
2018-12-08T03:08:08.313Z,22.60
2018-12-08T03:10:35.317Z,22.60
2018-12-08T03:13:02.382Z,22.60
2018-12-08T03:15:29.458Z,22.60
2018-12-08T03:17:56.537Z,22.60
2018-12-08T03:20:23.638Z,22.60
2018-12-08T03:22:50.779Z,22.60
2018-12-08T03:25:17.935Z,22.60
2018-12-08T03:27:44.994Z,22.60
2018-12-08T03:30:12.016Z,22.60
2018-12-08T03:32:39.192Z,22.60
2018-12-08T03:35:06.199Z,22.60
2018-12-08T03:37:33.227Z,22.60
2018-12-08T03:40:00.300Z,22.60
2018-12-08T03:42:27.465Z,22.60
2018-12-08T03:44:54.493Z,22.60
2018-12-08T03:47:21.615Z,22.60
2018-12-08T03:49:48.750Z,22.60
2018-12-08T03:52:15.766Z,22.60
2018-12-08T03:54:42.822Z,22.60
2018-12-08T03:57:09.980Z,22.60
2018-12-08T03:59:36.996Z,22.60
2018-12-08T04:02:04.261Z,22.60
2018-12-08T04:04:31.441Z,22.60
2018-12-08T04:06:58.469Z,22.60
2018-12-08T04:09:25.497Z,22.60
2018-12-08T04:11:52.524Z,22.60
2018-12-08T04:14:19.532Z,22.60
2018-12-08T04:16:46.575Z,22.60
2018-12-08T04:19:13.606Z,22.60
2018-12-08T04:21:40.747Z,22.60
2018-12-08T04:24:07.801Z,22.60
2018-12-08T04:26:34.886Z,22.60
2018-12-08T04:29:01.954Z,22.60
2018-12-08T04:31:28.987Z,22.60
2018-12-08T04:33:56.094Z,22.60
2018-12-08T04:36:23.149Z,22.60
2018-12-08T04:38:50.196Z,22.60
2018-12-08T04:41:17.191Z,22.60
2018-12-08T04:43:44.270Z,22.60
2018-12-08T04:46:11.378Z,22.60
2018-12-08T04:48:38.454Z,22.60
2018-12-08T04:51:05.532Z,22.70
2018-12-08T04:53:32.662Z,22.60
2018-12-08T04:55:59.715Z,22.70
2018-12-08T04:58:26.906Z,22.60
2018-12-08T05:00:53.980Z,22.60
2018-12-08T05:03:21.000Z,22.60
2018-12-08T05:05:48.003Z,22.70
2018-12-08T05:08:15.096Z,22.60
2018-12-08T05:10:42.208Z,22.70
2018-12-08T05:13:09.218Z,22.70
2018-12-08T05:15:36.323Z,22.60
2018-12-08T05:18:03.332Z,22.70
2018-12-08T05:20:30.331Z,22.70
2018-12-08T05:22:57.394Z,22.70
2018-12-08T05:25:24.424Z,22.60
2018-12-08T05:27:51.537Z,22.70
2018-12-08T05:30:18.695Z,22.70
2018-12-08T05:32:45.733Z,22.70
2018-12-08T05:35:12.921Z,22.70
2018-12-08T05:37:39.991Z,22.70
2018-12-08T05:40:07.081Z,22.70
2018-12-08T05:42:34.093Z,22.70
2018-12-08T05:45:01.143Z,22.70
2018-12-08T05:47:28.204Z,22.70
2018-12-08T05:49:55.284Z,22.70
2018-12-08T05:52:22.362Z,22.70
2018-12-08T05:54:49.426Z,22.70
2018-12-08T05:57:16.451Z,22.70
2018-12-08T05:59:43.570Z,22.70
2018-12-08T06:02:10.746Z,22.70
2018-12-08T06:04:37.776Z,22.70
2018-12-08T06:07:04.837Z,22.70
2018-12-08T06:09:31.854Z,22.70
2018-12-08T06:11:58.898Z,22.70
2018-12-08T06:14:25.964Z,22.70
2018-12-08T06:16:52.999Z,22.70
2018-12-08T06:19:20.154Z,22.70
2018-12-08T06:21:47.187Z,22.70
2018-12-08T06:24:14.246Z,22.70
2018-12-08T06:26:43.516Z,22.60
2018-12-08T06:29:10.591Z,22.60
2018-12-08T06:31:37.614Z,22.60
2018-12-08T06:34:04.693Z,22.60
2018-12-08T06:36:31.745Z,22.60
2018-12-08T06:38:58.781Z,22.60
2018-12-08T06:41:25.962Z,22.70
2018-12-08T06:43:52.986Z,22.60
2018-12-08T06:46:20.060Z,22.60
2018-12-08T06:48:47.118Z,22.70
2018-12-08T06:51:14.135Z,22.60
2018-12-08T06:53:41.136Z,22.70
2018-12-08T06:56:08.244Z,22.70
2018-12-08T06:58:35.262Z,22.70
2018-12-08T07:01:03.169Z,22.70
2018-12-08T07:03:30.222Z,22.70
2018-12-08T07:05:57.248Z,22.70
2018-12-08T07:08:24.281Z,22.70
2018-12-08T07:10:51.371Z,22.80
2018-12-08T07:13:18.435Z,22.90
2018-12-08T07:15:45.433Z,23.00
2018-12-08T07:18:12.514Z,23.00
2018-12-08T07:20:39.580Z,23.00
2018-12-08T07:23:06.621Z,23.10
2018-12-08T07:25:33.773Z,23.20
2018-12-08T07:28:00.840Z,23.20
2018-12-08T07:30:27.914Z,23.20
2018-12-08T07:32:54.969Z,23.20
2018-12-08T07:35:22.148Z,23.20
2018-12-08T07:37:49.182Z,23.20
2018-12-08T07:40:16.315Z,23.20
2018-12-08T07:42:43.310Z,23.20
2018-12-08T07:45:10.408Z,23.20
2018-12-08T07:47:37.549Z,23.20
2018-12-08T07:50:05.322Z,23.20
2018-12-08T07:52:32.374Z,23.20
2018-12-08T07:54:59.372Z,23.20
2018-12-08T07:57:26.436Z,23.20
2018-12-08T07:59:53.530Z,23.20
2018-12-08T08:02:20.578Z,23.20
2018-12-08T08:04:47.622Z,23.20
2018-12-08T08:07:14.675Z,23.30
2018-12-08T08:09:41.991Z,23.30
2018-12-08T08:12:09.123Z,23.20
2018-12-08T08:14:36.837Z,23.20
2018-12-08T08:17:03.922Z,23.20
2018-12-08T08:19:31.010Z,23.20
2018-12-08T08:21:58.112Z,23.30
2018-12-08T08:24:25.180Z,23.20
2018-12-08T08:26:52.305Z,23.20
2018-12-08T08:29:19.407Z,23.20
2018-12-08T08:31:46.473Z,23.20
2018-12-08T08:34:13.772Z,23.20
2018-12-08T08:36:40.843Z,23.20
2018-12-08T08:39:08.012Z,23.20
2018-12-08T08:41:35.058Z,23.30
2018-12-08T08:44:02.060Z,23.30
2018-12-08T08:46:29.255Z,23.30
2018-12-08T08:48:56.260Z,23.30
2018-12-08T08:51:23.370Z,23.30
2018-12-08T08:53:50.448Z,23.40
2018-12-08T08:56:17.450Z,23.30
2018-12-08T08:58:44.470Z,23.40
2018-12-08T09:01:11.876Z,23.40
2018-12-08T09:03:39.515Z,23.70
2018-12-08T09:06:06.550Z,24.00
2018-12-08T09:08:33.615Z,24.00
2018-12-08T09:11:00.639Z,24.00
2018-12-08T09:13:27.680Z,24.00
2018-12-08T09:15:54.749Z,24.00
2018-12-08T09:18:21.849Z,23.90
2018-12-08T09:20:49.036Z,23.80
2018-12-08T09:23:16.067Z,23.70
2018-12-08T09:25:43.111Z,23.70
2018-12-08T09:28:10.185Z,23.60
2018-12-08T09:30:37.215Z,23.50
2018-12-08T09:33:04.369Z,23.40
2018-12-08T09:35:31.436Z,23.40
2018-12-08T09:37:58.489Z,23.30
2018-12-08T09:40:25.624Z,23.30
2018-12-08T09:42:52.683Z,23.20
2018-12-08T09:45:19.688Z,23.20
2018-12-08T09:47:46.751Z,23.10
2018-12-08T09:50:13.768Z,23.10
2018-12-08T09:52:40.996Z,23.00
2018-12-08T09:55:08.111Z,22.20
2018-12-08T09:57:35.179Z,21.40
2018-12-08T10:00:02.205Z,21.00
2018-12-08T10:02:29.256Z,20.60
2018-12-08T10:04:56.259Z,20.30
2018-12-08T10:07:23.345Z,20.10
2018-12-08T10:09:50.503Z,19.80
2018-12-08T10:12:17.548Z,19.70
2018-12-08T10:14:44.590Z,19.80
2018-12-08T10:17:11.697Z,19.90
2018-12-08T10:19:38.776Z,20.40
2018-12-08T10:22:05.861Z,20.70
2018-12-08T10:24:32.916Z,20.90
2018-12-08T10:26:59.921Z,21.10
2018-12-08T10:29:26.944Z,21.30
2018-12-08T10:31:54.046Z,21.60
2018-12-08T10:34:21.103Z,21.70
2018-12-08T10:36:48.104Z,21.80
2018-12-08T10:39:15.163Z,21.90
2018-12-08T10:41:42.205Z,22.00
2018-12-08T10:44:09.234Z,22.10
2018-12-08T10:46:36.300Z,22.20
2018-12-08T10:49:03.328Z,22.20
2018-12-08T10:51:30.405Z,22.30
2018-12-08T10:53:57.543Z,22.40
2018-12-08T10:56:24.539Z,22.40
2018-12-08T10:58:51.636Z,22.40
2018-12-08T11:01:19.178Z,22.40
2018-12-08T11:03:46.990Z,22.40
2018-12-08T11:06:14.146Z,22.40
2018-12-08T11:08:41.226Z,22.40
2018-12-08T11:11:08.216Z,22.40
2018-12-08T11:13:35.291Z,22.50
2018-12-08T11:16:02.425Z,22.50
2018-12-08T11:18:29.466Z,22.50
2018-12-08T11:20:56.481Z,22.50
2018-12-08T11:23:23.575Z,22.50
2018-12-08T11:25:50.580Z,22.50
2018-12-08T11:28:17.585Z,22.50
2018-12-08T11:30:44.645Z,22.60
2018-12-08T11:33:11.766Z,22.70
2018-12-08T11:35:38.790Z,22.70
2018-12-08T11:38:05.861Z,22.70
2018-12-08T11:40:32.921Z,22.80
2018-12-08T11:42:59.984Z,22.80
2018-12-08T11:45:27.082Z,22.80
2018-12-08T11:47:54.155Z,22.90
2018-12-08T11:50:21.194Z,22.80
2018-12-08T11:52:48.232Z,22.90
2018-12-08T11:55:15.231Z,22.90
2018-12-08T11:57:42.294Z,22.90
2018-12-08T12:00:09.322Z,22.90
2018-12-08T12:02:36.425Z,23.00
2018-12-08T12:05:03.991Z,23.00
2018-12-08T12:07:31.015Z,23.00
2018-12-08T12:09:58.223Z,23.00
2018-12-08T12:12:25.350Z,23.00
2018-12-08T12:14:52.344Z,23.00
2018-12-08T12:17:19.432Z,23.00
2018-12-08T12:19:46.714Z,23.00
2018-12-08T12:22:13.833Z,23.00
2018-12-08T12:24:40.862Z,23.00
2018-12-08T12:27:07.937Z,23.00
2018-12-08T12:29:35.021Z,23.00
2018-12-08T12:32:02.077Z,23.00
2018-12-08T12:34:29.112Z,23.00
2018-12-08T12:36:56.175Z,23.00
2018-12-08T12:39:23.621Z,23.00
2018-12-08T12:41:50.660Z,23.00
2018-12-08T12:44:17.815Z,23.00
2018-12-08T12:46:44.907Z,23.00
2018-12-08T12:49:11.920Z,23.00
2018-12-08T12:51:39.028Z,23.00
2018-12-08T12:54:06.044Z,23.00
2018-12-08T12:56:33.057Z,23.30
2018-12-08T12:59:00.211Z,23.50
2018-12-08T13:01:27.291Z,23.60
2018-12-08T13:03:54.337Z,23.60
2018-12-08T13:06:21.959Z,23.60
2018-12-08T13:08:49.216Z,23.50
2018-12-08T13:11:16.262Z,23.50
2018-12-08T13:13:43.344Z,23.50
2018-12-08T13:16:10.408Z,23.50
2018-12-08T13:18:37.434Z,23.40
2018-12-08T13:21:04.488Z,23.40
2018-12-08T13:23:31.535Z,23.30
2018-12-08T13:25:58.573Z,23.30
2018-12-08T13:28:25.638Z,23.20
2018-12-08T13:30:52.703Z,23.20
2018-12-08T13:33:19.715Z,23.20
2018-12-08T13:35:52.617Z,23.20
2018-12-08T13:38:19.636Z,23.20
2018-12-08T13:40:46.655Z,23.10
2018-12-08T13:43:13.780Z,23.10
2018-12-08T13:45:40.932Z,23.00
2018-12-08T13:48:08.364Z,22.80
2018-12-08T13:50:35.780Z,22.70
2018-12-08T13:53:02.822Z,22.60
2018-12-08T13:55:29.848Z,22.60
2018-12-08T13:57:57.746Z,22.50
2018-12-08T14:00:24.752Z,22.40
2018-12-08T14:02:51.796Z,22.30
2018-12-08T14:05:18.864Z,22.30
2018-12-08T14:07:45.870Z,22.40
2018-12-08T14:10:12.904Z,22.50
2018-12-08T14:12:40.062Z,22.50
2018-12-08T14:15:07.057Z,22.50
2018-12-08T14:17:34.071Z,22.50
2018-12-08T14:20:07.064Z,22.50
2018-12-08T14:22:34.201Z,22.50
2018-12-08T14:25:01.229Z,22.50
2018-12-08T14:27:28.266Z,22.50
2018-12-08T14:29:55.286Z,22.60
2018-12-08T14:32:22.311Z,22.50
2018-12-08T14:34:49.366Z,22.50
2018-12-08T14:37:16.495Z,22.50
2018-12-08T14:39:43.505Z,22.60
2018-12-08T14:42:10.570Z,22.60
2018-12-08T14:44:37.616Z,22.60
2018-12-08T14:47:04.611Z,22.60
2018-12-08T14:49:31.713Z,22.60
2018-12-08T14:51:58.788Z,22.60
2018-12-08T14:54:25.827Z,22.60
2018-12-08T14:56:52.929Z,22.60
2018-12-08T14:59:19.939Z,22.60
2018-12-08T15:01:46.953Z,22.60
2018-12-08T15:04:14.091Z,22.60
2018-12-08T15:06:41.095Z,22.60
2018-12-08T15:09:08.197Z,22.60
2018-12-08T15:11:35.337Z,22.60
2018-12-08T15:14:02.341Z,22.60
2018-12-08T15:16:29.343Z,22.60
2018-12-08T15:18:56.412Z,22.60
2018-12-08T15:21:23.435Z,22.60
2018-12-08T15:23:50.487Z,22.60
2018-12-08T15:26:17.629Z,22.60
2018-12-08T15:28:44.673Z,22.60
2018-12-08T15:31:11.755Z,22.60
2018-12-08T15:33:38.879Z,22.60
2018-12-08T15:36:05.947Z,22.60
2018-12-08T15:38:33.075Z,22.60
2018-12-08T15:41:00.110Z,22.60
2018-12-08T15:43:27.105Z,22.60
2018-12-08T15:45:54.240Z,22.60
2018-12-08T15:48:21.255Z,22.60
2018-12-08T15:50:48.285Z,22.60
2018-12-08T15:53:15.356Z,22.60
2018-12-08T15:55:42.433Z,22.60
2018-12-08T15:58:09.473Z,22.60
2018-12-08T16:00:36.761Z,22.60
2018-12-08T16:03:03.779Z,22.60
2018-12-08T16:05:30.790Z,22.60
2018-12-08T16:07:57.829Z,22.60
2018-12-08T16:10:24.905Z,22.60
2018-12-08T16:12:51.961Z,22.60
2018-12-08T16:15:18.999Z,22.60
2018-12-08T16:17:46.149Z,22.60
2018-12-08T16:20:13.150Z,22.60
2018-12-08T16:22:40.157Z,22.60
2018-12-08T16:25:07.241Z,22.60
2018-12-08T16:27:34.328Z,22.60
2018-12-08T16:30:03.509Z,22.60
2018-12-08T16:32:30.477Z,22.60
2018-12-08T16:34:57.542Z,22.60
2018-12-08T16:37:24.657Z,22.60
2018-12-08T16:39:51.677Z,22.50
2018-12-08T16:42:18.780Z,22.50
2018-12-08T16:44:45.848Z,22.60
2018-12-08T16:47:12.990Z,22.50
2018-12-08T16:49:40.032Z,22.50
2018-12-08T16:52:07.556Z,22.60
2018-12-08T16:54:34.592Z,22.60
2018-12-08T16:57:01.596Z,22.50
2018-12-08T16:59:28.674Z,22.50
2018-12-08T17:01:55.759Z,22.50
2018-12-08T17:04:22.764Z,22.50
2018-12-08T17:06:49.796Z,22.50
2018-12-08T17:09:16.914Z,22.50
2018-12-08T17:11:43.936Z,22.50
2018-12-08T17:14:10.946Z,22.50
2018-12-08T17:16:38.027Z,22.50
2018-12-08T17:19:05.050Z,22.50
2018-12-08T17:21:32.046Z,22.50
2018-12-08T17:23:59.200Z,22.50
2018-12-08T17:26:26.195Z,22.50
2018-12-08T17:28:53.206Z,22.50
2018-12-08T17:31:20.355Z,22.50
2018-12-08T17:33:47.354Z,22.50
2018-12-08T17:36:14.526Z,22.50
2018-12-08T17:38:41.579Z,22.50
2018-12-08T17:41:09.561Z,22.50
2018-12-08T17:43:36.690Z,22.50
2018-12-08T17:46:03.722Z,22.50
2018-12-08T17:48:30.809Z,22.50
2018-12-08T17:50:57.937Z,23.00
2018-12-08T17:53:25.005Z,22.50
2018-12-08T17:55:52.035Z,22.50
2018-12-08T17:58:19.083Z,22.50
2018-12-08T18:00:46.242Z,22.50
2018-12-08T18:03:13.283Z,22.50
2018-12-08T18:05:40.318Z,22.50
2018-12-08T18:08:07.383Z,22.50
2018-12-08T18:10:34.439Z,22.50
2018-12-08T18:13:01.472Z,22.50
2018-12-08T18:15:28.539Z,22.50
2018-12-08T18:17:55.669Z,22.50
2018-12-08T18:20:22.677Z,22.50
2018-12-08T18:22:49.900Z,22.50
2018-12-08T18:25:17.114Z,22.50
2018-12-08T18:27:44.152Z,22.50
2018-12-08T18:30:11.166Z,22.50
2018-12-08T18:32:38.240Z,22.50
2018-12-08T18:35:05.263Z,22.50
2018-12-08T18:37:32.304Z,22.50
2018-12-08T18:39:59.422Z,22.50
2018-12-08T18:42:26.450Z,22.40
2018-12-08T18:44:53.513Z,22.50
2018-12-08T18:47:20.577Z,22.50
2018-12-08T18:49:47.714Z,22.50
2018-12-08T18:52:14.795Z,22.50
2018-12-08T18:54:41.888Z,22.50
2018-12-08T18:57:08.874Z,22.50
2018-12-08T18:59:36.006Z,22.50
2018-12-08T19:02:03.135Z,22.50
2018-12-08T19:04:30.138Z,22.50
2018-12-08T19:06:57.157Z,22.50
2018-12-08T19:09:25.111Z,22.50
2018-12-08T19:11:52.173Z,22.50
2018-12-08T19:14:19.192Z,22.50
2018-12-08T19:16:46.246Z,22.50
2018-12-08T19:19:13.429Z,22.50
2018-12-08T19:21:40.546Z,22.40
2018-12-08T19:24:07.597Z,22.50
2018-12-08T19:26:34.838Z,22.50
2018-12-08T19:29:01.836Z,22.50
2018-12-08T19:31:28.948Z,22.50
2018-12-08T19:33:56.023Z,22.50
2018-12-08T19:36:23.107Z,22.40
2018-12-08T19:38:50.199Z,22.50
2018-12-08T19:41:17.249Z,22.50
2018-12-08T19:43:44.292Z,22.50
2018-12-08T19:46:11.312Z,22.50
2018-12-08T19:48:38.485Z,22.50
2018-12-08T19:51:05.522Z,22.40
2018-12-08T19:53:32.576Z,22.40
2018-12-08T19:55:59.733Z,22.50
2018-12-08T19:58:26.884Z,22.40
2018-12-08T20:00:53.925Z,22.50
2018-12-08T20:03:21.000Z,22.50
2018-12-08T20:05:48.097Z,22.40
2018-12-08T20:08:15.168Z,22.50
2018-12-08T20:10:42.239Z,22.50
2018-12-08T20:13:09.247Z,22.50
2018-12-08T20:15:36.270Z,22.40
2018-12-08T20:18:03.376Z,22.50
2018-12-08T20:20:30.521Z,22.50
2018-12-08T20:22:57.653Z,22.50
2018-12-08T20:25:24.819Z,22.50
2018-12-08T20:27:51.857Z,22.40
2018-12-08T20:30:18.899Z,22.40
2018-12-08T20:32:46.047Z,22.50
2018-12-08T20:35:13.065Z,22.50
2018-12-08T20:37:40.121Z,22.40
2018-12-08T20:40:07.157Z,22.40
2018-12-08T20:42:34.164Z,22.40
2018-12-08T20:45:01.251Z,22.40
2018-12-08T20:47:28.343Z,22.40
2018-12-08T20:49:55.402Z,22.40
2018-12-08T20:52:22.578Z,22.40
2018-12-08T20:54:49.607Z,22.40
2018-12-08T20:57:16.628Z,22.40
2018-12-08T20:59:43.721Z,22.40
2018-12-08T21:02:11.053Z,22.40
2018-12-08T21:04:38.049Z,22.40
2018-12-08T21:07:05.153Z,22.40
2018-12-08T21:09:32.168Z,22.40
2018-12-08T21:11:59.177Z,22.40
2018-12-08T21:14:26.264Z,22.40
2018-12-08T21:16:53.309Z,22.40
2018-12-08T21:19:20.341Z,22.40
2018-12-08T21:21:48.423Z,22.40
2018-12-08T21:24:15.481Z,22.40
2018-12-08T21:26:42.561Z,22.40
2018-12-08T21:29:09.785Z,22.40
2018-12-08T21:31:36.817Z,22.40
2018-12-08T21:34:03.841Z,22.40
2018-12-08T21:36:30.927Z,22.40
2018-12-08T21:38:57.951Z,22.40
2018-12-08T21:41:25.001Z,22.40
2018-12-08T21:43:52.056Z,22.40
2018-12-08T21:46:19.089Z,22.40
2018-12-08T21:48:46.091Z,22.40
2018-12-08T21:51:13.171Z,22.40
2018-12-08T21:53:40.169Z,22.40
2018-12-08T21:56:07.259Z,22.40
2018-12-08T21:58:34.326Z,22.40
2018-12-08T22:01:01.353Z,22.40
2018-12-08T22:03:28.444Z,22.40
2018-12-08T22:05:55.524Z,22.40
2018-12-08T22:08:22.564Z,22.40
2018-12-08T22:10:49.577Z,22.40
2018-12-08T22:13:16.726Z,22.40
2018-12-08T22:15:43.791Z,22.40
2018-12-08T22:18:10.865Z,22.40
2018-12-08T22:20:37.959Z,22.40
2018-12-08T22:23:05.026Z,22.40
2018-12-08T22:25:32.154Z,22.50
2018-12-08T22:27:59.221Z,22.40
2018-12-08T22:30:26.272Z,22.50
2018-12-08T22:32:53.299Z,22.50
2018-12-08T22:35:20.296Z,22.50
2018-12-08T22:37:47.416Z,22.50
2018-12-08T22:40:14.455Z,22.50
2018-12-08T22:42:41.502Z,22.50
2018-12-08T22:45:08.586Z,22.50
2018-12-08T22:47:35.623Z,22.50
2018-12-08T22:50:02.662Z,22.50
2018-12-08T22:52:29.773Z,22.50
2018-12-08T22:54:56.786Z,22.50
2018-12-08T22:57:23.902Z,22.50
2018-12-08T22:59:51.028Z,22.50
2018-12-08T23:02:18.028Z,22.50
2018-12-08T23:04:45.111Z,22.50
2018-12-08T23:07:12.286Z,22.60
2018-12-08T23:09:39.316Z,22.60
2018-12-08T23:12:06.402Z,22.60
2018-12-08T23:14:33.465Z,22.60
2018-12-08T23:17:00.577Z,22.60
2018-12-08T23:19:27.616Z,22.60
2018-12-08T23:21:54.776Z,22.70
2018-12-08T23:24:21.804Z,22.70
2018-12-08T23:26:48.806Z,22.70
2018-12-08T23:29:15.894Z,22.70
2018-12-08T23:31:42.938Z,22.70
2018-12-08T23:34:10.014Z,22.70
2018-12-08T23:36:37.073Z,22.70
2018-12-08T23:39:04.218Z,22.70
2018-12-08T23:41:31.264Z,22.70
2018-12-08T23:43:58.392Z,22.70
2018-12-08T23:46:25.388Z,22.80
2018-12-08T23:48:52.737Z,22.80
2018-12-08T23:51:19.957Z,22.80
2018-12-08T23:53:47.013Z,22.80
2018-12-08T23:56:14.056Z,22.80
2018-12-08T23:58:41.122Z,22.80
